Time;durP1;ratioP1;P1;durP2;ratioP2;P2;SDS_P1;SDS_P2;PMS_P1;PMS_P2;Temp;Humidity;BMP_temperature;BMP_pressure;BME280_temperature;BME280_humidity;BME280_pressure;Samples;Min_cycle;Max_cycle;Signal;HPM_P1;HPM_P2
2023/04/30 00:00:15;;;;;;;8.80;2.33;;;6.50;99.90;;;;;;4996104;28;20473;-80
2023/04/30 00:03:01;;;;;;;10.27;1.75;;;6.50;99.90;;;;;;4995197;28;20081;-80
2023/04/30 00:05:50;;;;;;;9.40;1.35;;;6.40;99.90;;;;;;4995644;28;20049;-80
2023/04/30 00:08:36;;;;;;;8.73;1.70;;;6.40;99.90;;;;;;4994209;28;20057;-79
2023/04/30 00:11:24;;;;;;;7.88;1.27;;;6.30;99.90;;;;;;4999689;28;20057;-78
2023/04/30 00:14:10;;;;;;;2.92;0.90;;;6.30;99.90;;;;;;4995794;28;20045;-80
2023/04/30 00:16:56;;;;;;;6.95;1.48;;;6.30;99.90;;;;;;5013960;28;20077;-80
2023/04/30 00:19:42;;;;;;;16.35;1.52;;;6.20;99.90;;;;;;4994558;28;20093;-82
2023/04/30 00:22:29;;;;;;;7.13;1.60;;;6.20;99.90;;;;;;4995612;28;20056;-82
2023/04/30 00:25:15;;;;;;;55.55;12.73;;;6.10;99.90;;;;;;4994867;28;20058;-81
2023/04/30 00:28:01;;;;;;;29.63;8.48;;;6.10;99.90;;;;;;4995702;28;20387;-81
2023/04/30 00:30:48;;;;;;;59.33;12.93;;;6.00;99.90;;;;;;4981855;28;20062;-80
2023/04/30 00:33:34;;;;;;;87.57;23.48;;;6.10;99.90;;;;;;4995262;28;20048;-81
2023/04/30 00:36:20;;;;;;;68.80;16.20;;;6.00;99.90;;;;;;4995541;28;20378;-80
2023/04/30 00:39:06;;;;;;;28.13;6.15;;;6.00;99.90;;;;;;4994980;28;20075;-80
2023/04/30 00:41:52;;;;;;;13.40;2.95;;;6.00;99.90;;;;;;4995950;28;20054;-82
2023/04/30 00:44:39;;;;;;;6.72;2.15;;;6.00;99.90;;;;;;4996659;28;20096;-81
2023/04/30 00:47:25;;;;;;;6.55;1.20;;;6.10;99.90;;;;;;4994866;28;20046;-80
2023/04/30 00:50:14;;;;;;;8.32;1.60;;;6.20;99.90;;;;;;5011150;28;20050;-79
2023/04/30 00:53:00;;;;;;;123.35;26.15;;;6.20;99.90;;;;;;5011854;28;20099;-80
2023/04/30 00:55:47;;;;;;;82.05;20.88;;;6.20;99.90;;;;;;5011413;28;20089;-80
2023/04/30 00:58:34;;;;;;;41.97;8.45;;;6.30;99.90;;;;;;4995742;28;20068;-79
2023/04/30 01:01:20;;;;;;;18.88;3.50;;;6.30;99.90;;;;;;4994576;28;20060;-80
2023/04/30 01:04:06;;;;;;;12.98;4.03;;;6.40;99.90;;;;;;4994098;28;20062;-80
2023/04/30 01:06:52;;;;;;;9.10;1.95;;;6.40;99.90;;;;;;4982132;28;20089;-80
2023/04/30 01:09:38;;;;;;;12.88;2.08;;;6.50;99.90;;;;;;4996139;28;20050;-81
2023/04/30 01:12:45;;;;;;;11.13;2.40;;;6.60;99.90;;;;;;4995322;28;20120;-79
2023/04/30 01:15:54;;;;;;;13.95;2.65;;;6.60;99.90;;;;;;4994742;28;20184;-81
2023/04/30 01:18:55;;;;;;;7.32;1.70;;;6.70;99.90;;;;;;5000689;28;20136;-81
2023/04/30 01:21:44;;;;;;;5.25;1.25;;;6.80;99.90;;;;;;4993708;28;20060;-81
2023/04/30 01:24:54;;;;;;;7.10;1.08;;;6.90;99.90;;;;;;4994312;28;20050;-82
2023/04/30 01:28:13;;;;;;;6.43;1.70;;;6.80;99.90;;;;;;4994980;28;20104;-80
2023/04/30 01:30:59;;;;;;;3.30;1.10;;;6.90;99.90;;;;;;4993914;28;20788;-80
2023/04/30 01:33:45;;;;;;;6.00;1.42;;;6.90;99.90;;;;;;5012493;28;20137;-79
2023/04/30 01:36:53;;;;;;;9.60;2.45;;;6.90;99.90;;;;;;4997319;28;20050;-82
2023/04/30 01:40:07;;;;;;;7.95;1.50;;;7.00;99.90;;;;;;5011997;28;20054;-81
2023/04/30 01:43:11;;;;;;;10.15;1.55;;;7.00;99.90;;;;;;5012539;28;20124;-80
2023/04/30 01:46:19;;;;;;;13.50;1.60;;;7.00;99.90;;;;;;5011634;28;20045;-80
2023/04/30 01:49:11;;;;;;;8.05;1.50;;;7.10;99.90;;;;;;4992907;28;20108;-81
2023/04/30 01:52:13;;;;;;;10.50;1.92;;;7.00;99.90;;;;;;4994832;28;20611;-81
2023/04/30 01:55:04;;;;;;;6.70;1.42;;;7.10;99.90;;;;;;4995074;28;20399;-81
2023/04/30 01:57:59;;;;;;;5.30;1.30;;;7.10;99.90;;;;;;4993835;28;20112;-82
2023/04/30 02:00:45;;;;;;;9.75;1.83;;;7.10;99.90;;;;;;4994204;28;20108;-80
2023/04/30 02:03:32;;;;;;;7.03;1.58;;;7.10;99.90;;;;;;4994287;28;20474;-81
2023/04/30 02:06:18;;;;;;;7.22;1.80;;;7.10;99.90;;;;;;4992122;28;20144;-78
2023/04/30 02:09:05;;;;;;;8.35;1.70;;;7.10;99.90;;;;;;4992697;28;20217;-80
2023/04/30 02:11:51;;;;;;;7.53;1.60;;;7.00;99.90;;;;;;4980128;28;20457;-82
2023/04/30 02:14:37;;;;;;;10.73;1.90;;;7.10;99.90;;;;;;4991752;28;20546;-80
2023/04/30 02:17:24;;;;;;;10.57;1.75;;;7.10;99.90;;;;;;4994817;28;20061;-78
2023/04/30 02:20:10;;;;;;;9.80;1.67;;;7.10;99.90;;;;;;4994818;28;20053;-79
2023/04/30 02:22:57;;;;;;;5.53;1.20;;;7.10;99.90;;;;;;5011501;28;20145;-80
2023/04/30 02:25:43;;;;;;;8.95;1.65;;;7.10;99.90;;;;;;4992340;28;20046;-79
2023/04/30 02:28:29;;;;;;;10.95;1.88;;;7.10;99.90;;;;;;5011281;28;20523;-80
2023/04/30 02:31:15;;;;;;;8.77;1.38;;;7.10;99.90;;;;;;4994686;28;20058;-80
2023/04/30 02:34:01;;;;;;;9.75;2.40;;;7.10;99.90;;;;;;4993409;28;20049;-80
2023/04/30 02:36:47;;;;;;;12.77;2.05;;;7.10;99.90;;;;;;4980634;28;20054;-79
2023/04/30 02:39:34;;;;;;;9.35;2.63;;;7.20;99.90;;;;;;4994738;28;20054;-81
2023/04/30 02:42:20;;;;;;;10.30;2.03;;;7.20;99.90;;;;;;4993823;28;20524;-79
2023/04/30 02:45:06;;;;;;;7.60;1.90;;;7.30;99.90;;;;;;4992309;28;20045;-78
2023/04/30 02:47:52;;;;;;;8.93;1.83;;;7.20;99.90;;;;;;4992783;28;20046;-79
2023/04/30 02:50:39;;;;;;;5.53;1.40;;;7.30;99.90;;;;;;4993381;28;20139;-79
2023/04/30 02:53:25;;;;;;;8.93;1.48;;;7.30;99.90;;;;;;4993010;28;20073;-79
2023/04/30 02:56:11;;;;;;;4.35;1.20;;;7.30;99.90;;;;;;4979630;28;20136;-79
2023/04/30 02:58:57;;;;;;;9.27;2.13;;;7.30;99.90;;;;;;4992759;28;20141;-79
2023/04/30 03:01:43;;;;;;;9.77;1.45;;;7.20;99.90;;;;;;4992848;28;20398;-79
2023/04/30 03:04:29;;;;;;;3.72;1.33;;;7.10;99.90;;;;;;5010766;28;20049;-79
2023/04/30 03:07:15;;;;;;;8.05;1.85;;;7.10;99.90;;;;;;4992836;28;20054;-79
2023/04/30 03:10:02;;;;;;;14.68;4.00;;;7.00;99.90;;;;;;4993217;28;20060;-78
2023/04/30 03:12:48;;;;;;;25.55;7.45;;;7.00;99.90;;;;;;4992258;28;20042;-79
2023/04/30 03:15:34;;;;;;;14.82;3.40;;;6.90;99.90;;;;;;4994130;28;20200;-79
2023/04/30 03:18:20;;;;;;;7.30;2.22;;;6.90;99.90;;;;;;5011455;28;20072;-79
2023/04/30 03:21:06;;;;;;;13.15;2.80;;;6.80;99.90;;;;;;4992206;28;20068;-79
2023/04/30 03:23:52;;;;;;;8.63;1.90;;;6.80;99.90;;;;;;4994416;28;20060;-79
2023/04/30 03:26:38;;;;;;;6.25;1.70;;;6.70;99.90;;;;;;4993286;28;20050;-79
2023/04/30 03:29:25;;;;;;;5.55;1.00;;;6.60;99.90;;;;;;4979718;28;20096;-79
2023/04/30 03:32:11;;;;;;;5.68;1.73;;;6.60;99.90;;;;;;4994063;28;20728;-78
2023/04/30 03:34:57;;;;;;;7.18;1.30;;;6.60;99.90;;;;;;4994018;28;20064;-79
2023/04/30 03:37:43;;;;;;;7.63;1.90;;;6.50;99.90;;;;;;4992121;28;20498;-79
2023/04/30 03:40:30;;;;;;;10.50;2.30;;;6.50;99.90;;;;;;5009688;28;20569;-80
2023/04/30 03:43:16;;;;;;;10.32;1.70;;;6.40;99.90;;;;;;4993821;28;20057;-79
2023/04/30 03:46:02;;;;;;;5.15;1.70;;;6.40;99.90;;;;;;4996858;28;20097;-81
2023/04/30 03:48:48;;;;;;;5.57;1.52;;;6.30;99.90;;;;;;4995794;28;20520;-78
2023/04/30 03:51:40;;;;;;;8.35;1.83;;;6.30;99.90;;;;;;4997012;28;20112;-79
2023/04/30 03:54:26;;;;;;;6.35;1.80;;;6.30;99.90;;;;;;4995376;28;20064;-79
2023/04/30 03:57:13;;;;;;;10.27;1.40;;;6.20;99.90;;;;;;4982561;28;20134;-78
2023/04/30 03:59:59;;;;;;;12.07;2.30;;;6.20;99.90;;;;;;4981896;28;20053;-79
2023/04/30 04:02:45;;;;;;;6.60;1.48;;;6.10;99.90;;;;;;4997295;28;20046;-78
2023/04/30 04:05:31;;;;;;;8.13;1.40;;;6.20;99.90;;;;;;4994568;28;20409;-80
2023/04/30 04:08:17;;;;;;;6.63;1.88;;;6.20;99.90;;;;;;4995201;28;20054;-79
2023/04/30 04:11:04;;;;;;;14.38;2.20;;;6.20;99.90;;;;;;4995729;28;20100;-79
2023/04/30 04:13:50;;;;;;;8.32;1.80;;;6.30;99.90;;;;;;4996346;28;20107;-80
2023/04/30 04:16:36;;;;;;;8.32;2.25;;;6.30;99.90;;;;;;4996696;28;20058;-79
2023/04/30 04:19:22;;;;;;;8.68;1.77;;;6.30;99.90;;;;;;4996986;28;20069;-79
2023/04/30 04:22:08;;;;;;;5.90;1.50;;;6.40;99.90;;;;;;5012112;28;20498;-80
2023/04/30 04:24:55;;;;;;;9.43;1.85;;;6.50;99.90;;;;;;4998250;28;20085;-79
2023/04/30 04:27:41;;;;;;;6.78;1.48;;;6.50;99.90;;;;;;5012517;28;20414;-79
2023/04/30 04:30:27;;;;;;;11.55;1.77;;;6.60;99.90;;;;;;5013446;28;20050;-79
2023/04/30 04:33:13;;;;;;;5.75;2.20;;;6.60;99.90;;;;;;5012209;28;20053;-79
2023/04/30 04:35:59;;;;;;;10.65;2.22;;;6.60;99.90;;;;;;4995314;28;20395;-79
2023/04/30 04:38:45;;;;;;;7.45;2.17;;;6.70;99.90;;;;;;5013222;28;20046;-79
2023/04/30 04:41:33;;;;;;;16.30;2.67;;;6.80;99.90;;;;;;4994911;28;20064;-78
2023/04/30 04:44:19;;;;;;;6.97;2.60;;;6.80;99.90;;;;;;5012632;28;20080;-79
2023/04/30 04:47:05;;;;;;;17.10;2.50;;;6.90;99.90;;;;;;4996525;28;20060;-79
2023/04/30 04:49:51;;;;;;;14.57;2.80;;;6.90;99.90;;;;;;4994206;28;20525;-79
2023/04/30 04:52:38;;;;;;;9.57;2.72;;;7.00;99.90;;;;;;4995035;28;20072;-80
2023/04/30 04:55:24;;;;;;;17.98;3.03;;;7.00;99.90;;;;;;4994154;28;20141;-79
2023/04/30 04:58:10;;;;;;;10.70;5.03;;;7.10;99.90;;;;;;4995029;28;20494;-79
2023/04/30 05:00:56;;;;;;;14.27;2.70;;;7.10;99.90;;;;;;4994885;28;20459;-79
2023/04/30 05:03:42;;;;;;;13.48;2.55;;;7.10;99.90;;;;;;5011319;28;20569;-78
2023/04/30 05:06:28;;;;;;;15.23;2.97;;;7.20;99.90;;;;;;4994058;28;20108;-81
2023/04/30 05:09:15;;;;;;;15.20;3.83;;;7.20;99.90;;;;;;5010846;28;20069;-80
2023/04/30 05:12:01;;;;;;;10.07;2.75;;;7.30;99.90;;;;;;4981626;28;20061;-81
2023/04/30 05:14:48;;;;;;;15.60;3.10;;;7.30;99.90;;;;;;4995177;28;20058;-80
2023/04/30 05:17:34;;;;;;;9.60;2.55;;;7.40;99.90;;;;;;4981210;28;20879;-80
2023/04/30 05:20:20;;;;;;;10.05;2.28;;;7.40;99.90;;;;;;4993926;28;20050;-79
2023/04/30 05:23:07;;;;;;;10.63;2.92;;;7.40;99.90;;;;;;4981440;28;20085;-81
2023/04/30 05:25:53;;;;;;;10.38;3.00;;;7.50;99.90;;;;;;4993494;28;20157;-79
2023/04/30 05:28:40;;;;;;;13.38;4.47;;;7.60;99.90;;;;;;4995432;28;20484;-81
2023/04/30 05:31:26;;;;;;;12.68;3.42;;;7.60;99.90;;;;;;4995346;28;20089;-79
2023/04/30 05:34:12;;;;;;;9.68;2.90;;;7.70;99.90;;;;;;4993777;28;20128;-81
2023/04/30 05:36:58;;;;;;;12.60;2.78;;;7.80;99.90;;;;;;4993909;28;20533;-80
2023/04/30 05:39:44;;;;;;;17.42;3.25;;;7.80;99.90;;;;;;4994463;28;20141;-80
2023/04/30 05:42:30;;;;;;;9.32;3.10;;;7.90;99.90;;;;;;4994329;28;20127;-79
2023/04/30 05:45:16;;;;;;;14.40;3.78;;;8.00;99.90;;;;;;4994666;28;20049;-80
2023/04/30 05:48:03;;;;;;;8.23;2.42;;;8.10;99.90;;;;;;4993755;28;20050;-80
2023/04/30 05:50:49;;;;;;;13.60;3.78;;;8.10;99.90;;;;;;4992688;28;20141;-80
2023/04/30 05:53:35;;;;;;;13.32;2.80;;;8.10;99.90;;;;;;4994670;28;20522;-80
2023/04/30 05:56:22;;;;;;;16.33;3.17;;;8.20;99.90;;;;;;4995213;28;20092;-80
2023/04/30 05:59:08;;;;;;;11.82;3.72;;;8.30;99.90;;;;;;4994455;28;20046;-81
2023/04/30 06:01:54;;;;;;;16.17;3.25;;;8.40;99.90;;;;;;4992977;28;20061;-83
2023/04/30 06:04:41;;;;;;;13.57;3.25;;;8.50;99.90;;;;;;4994570;28;20490;-81
2023/04/30 06:07:27;;;;;;;14.35;3.72;;;8.60;99.90;;;;;;5008859;28;20073;-80
2023/04/30 06:10:13;;;;;;;9.20;3.35;;;8.70;99.90;;;;;;5010664;28;20053;-80
2023/04/30 06:12:59;;;;;;;11.32;3.40;;;8.70;99.90;;;;;;4979581;28;20513;-80
2023/04/30 06:15:46;;;;;;;16.77;3.35;;;8.80;99.90;;;;;;4992063;28;20150;-80
2023/04/30 06:18:32;;;;;;;10.38;3.95;;;8.80;99.90;;;;;;4993398;28;20060;-81
2023/04/30 06:21:19;;;;;;;28.75;5.25;;;8.80;99.90;;;;;;4993780;28;20061;-79
2023/04/30 06:24:05;;;;;;;10.00;3.03;;;8.80;99.90;;;;;;4994057;28;20058;-78
2023/04/30 06:26:51;;;;;;;20.92;3.90;;;8.90;99.90;;;;;;4991869;28;20498;-80
2023/04/30 06:29:38;;;;;;;11.50;3.40;;;9.00;99.90;;;;;;4994391;28;20101;-82
2023/04/30 06:32:24;;;;;;;11.30;4.13;;;9.10;99.90;;;;;;5010913;28;20428;-79
2023/04/30 06:35:10;;;;;;;14.75;4.63;;;9.20;99.90;;;;;;4993571;28;20050;-82
2023/04/30 06:37:56;;;;;;;10.73;3.13;;;9.20;99.90;;;;;;4980313;28;20089;-82
2023/04/30 06:40:42;;;;;;;9.00;2.75;;;9.30;99.90;;;;;;4994404;28;20050;-82
2023/04/30 06:43:29;;;;;;;8.70;2.92;;;9.40;99.90;;;;;;4992227;28;20045;-80
2023/04/30 06:46:15;;;;;;;15.98;4.18;;;9.40;99.90;;;;;;4993788;28;20062;-80
2023/04/30 06:49:01;;;;;;;19.10;3.22;;;9.40;99.90;;;;;;4993536;28;20093;-80
2023/04/30 06:51:47;;;;;;;10.70;3.10;;;9.40;99.90;;;;;;4992448;28;20054;-81
2023/04/30 06:54:33;;;;;;;7.35;2.55;;;9.40;99.90;;;;;;4979081;28;20050;-81
2023/04/30 06:57:19;;;;;;;12.10;3.08;;;9.50;99.90;;;;;;4991567;28;20097;-80
2023/04/30 07:00:07;;;;;;;12.52;3.15;;;9.60;99.90;;;;;;4994405;28;20046;-79
2023/04/30 07:02:53;;;;;;;10.32;3.20;;;9.70;99.90;;;;;;4991755;28;20129;-80
2023/04/30 07:05:40;;;;;;;10.52;3.88;;;9.80;99.90;;;;;;4993284;28;20084;-81
2023/04/30 07:08:26;;;;;;;7.53;2.58;;;9.90;99.90;;;;;;4993025;28;20058;-81
2023/04/30 07:11:12;;;;;;;8.70;3.35;;;10.00;99.90;;;;;;4993187;28;20058;-81
2023/04/30 07:13:58;;;;;;;13.85;3.63;;;10.00;99.90;;;;;;5010898;28;20050;-81
2023/04/30 07:16:45;;;;;;;10.85;3.05;;;10.10;99.90;;;;;;4992627;28;20054;-81
2023/04/30 07:19:31;;;;;;;22.77;3.55;;;10.10;99.90;;;;;;5014538;28;20053;-81
2023/04/30 07:22:17;;;;;;;8.90;3.47;;;10.20;99.90;;;;;;4969235;28;20486;-81
2023/04/30 07:25:04;;;;;;;11.60;3.40;;;10.20;99.90;;;;;;5014726;28;20084;-80
2023/04/30 07:27:52;;;;;;;13.95;3.20;;;10.30;99.90;;;;;;4995449;28;20065;-81
2023/04/30 07:30:38;;;;;;;15.55;3.47;;;10.30;99.90;;;;;;4995255;28;20085;-81
2023/04/30 07:33:24;;;;;;;13.88;3.55;;;10.40;99.90;;;;;;5013722;28;20498;-81
2023/04/30 07:36:10;;;;;;;11.45;4.10;;;10.50;99.90;;;;;;4999744;28;20054;-81
2023/04/30 07:38:57;;;;;;;10.95;3.17;;;10.60;99.90;;;;;;4983246;28;20057;-81
2023/04/30 07:41:43;;;;;;;9.57;2.72;;;10.80;99.90;;;;;;4996185;28;20089;-80
2023/04/30 07:44:30;;;;;;;8.25;2.33;;;10.80;99.90;;;;;;4996022;28;20058;-82
2023/04/30 07:47:17;;;;;;;10.85;2.88;;;10.80;99.90;;;;;;4998552;28;20046;-81
2023/04/30 07:50:03;;;;;;;15.10;3.20;;;11.00;99.90;;;;;;4982192;28;20058;-80
2023/04/30 07:52:50;;;;;;;10.27;3.10;;;11.10;99.90;;;;;;5013222;28;20202;-79
2023/04/30 07:55:36;;;;;;;9.27;2.47;;;11.20;99.90;;;;;;4995236;28;20042;-79
2023/04/30 07:58:22;;;;;;;12.38;2.53;;;11.30;99.90;;;;;;5013228;28;20049;-80
2023/04/30 08:01:08;;;;;;;12.70;2.90;;;11.30;99.90;;;;;;5012508;28;20049;-78
2023/04/30 08:03:54;;;;;;;16.30;4.18;;;11.50;99.90;;;;;;4996154;28;20414;-78
2023/04/30 08:06:40;;;;;;;7.15;2.13;;;11.70;99.90;;;;;;4996454;28;20046;-78
2023/04/30 08:09:26;;;;;;;10.90;2.92;;;12.00;99.90;;;;;;4995452;28;20050;-79
2023/04/30 08:12:12;;;;;;;12.10;2.72;;;12.40;99.90;;;;;;4995477;28;20062;-80
2023/04/30 08:15:03;;;;;;;10.38;2.40;;;12.50;99.90;;;;;;4982588;28;20064;-81
2023/04/30 08:17:51;;;;;;;9.60;1.92;;;12.60;99.90;;;;;;4994525;28;20096;-79
2023/04/30 08:20:37;;;;;;;12.57;3.05;;;12.60;99.90;;;;;;4995470;28;20053;-80
2023/04/30 08:23:23;;;;;;;11.32;2.53;;;12.70;99.90;;;;;;4996234;28;20505;-80
2023/04/30 08:26:09;;;;;;;14.43;2.65;;;12.90;99.90;;;;;;4995663;28;20085;-81
2023/04/30 08:28:55;;;;;;;7.88;2.00;;;12.80;99.90;;;;;;5012551;28;20050;-79
2023/04/30 08:31:41;;;;;;;14.30;2.28;;;12.80;99.90;;;;;;4994177;28;20049;-80
2023/04/30 08:34:28;;;;;;;11.70;2.88;;;12.90;99.90;;;;;;4995267;28;20045;-80
2023/04/30 08:37:14;;;;;;;7.78;1.98;;;13.00;99.90;;;;;;4996011;28;20050;-81
2023/04/30 08:40:00;;;;;;;9.07;2.58;;;13.00;99.90;;;;;;4995425;28;20494;-81
2023/04/30 08:42:57;;;;;;;8.38;2.08;;;13.10;99.90;;;;;;4995096;28;20065;-81
2023/04/30 08:45:44;;;;;;;8.60;2.30;;;13.00;99.90;;;;;;4994225;28;20053;-80
2023/04/30 08:48:31;;;;;;;8.52;2.40;;;12.90;99.90;;;;;;4995798;28;20060;-80
2023/04/30 08:51:17;;;;;;;8.25;1.80;;;12.90;99.90;;;;;;5012028;28;20465;-79
2023/04/30 08:54:03;;;;;;;11.25;2.40;;;12.90;99.90;;;;;;4994954;28;20046;-81
2023/04/30 08:56:49;;;;;;;11.60;2.60;;;12.90;99.90;;;;;;5012009;28;20714;-81
2023/04/30 08:59:35;;;;;;;11.23;2.22;;;13.00;99.90;;;;;;4995252;28;20058;-81
2023/04/30 09:02:21;;;;;;;8.18;2.72;;;13.10;99.90;;;;;;4997244;28;20510;-81
2023/04/30 09:05:12;;;;;;;12.77;2.75;;;13.10;99.90;;;;;;4994529;28;20072;-81
2023/04/30 09:07:58;;;;;;;9.05;2.33;;;13.00;99.90;;;;;;5012537;28;20081;-80
2023/04/30 09:10:45;;;;;;;10.82;2.30;;;13.00;99.90;;;;;;5010460;28;20119;-81
2023/04/30 09:13:40;;;;;;;6.57;1.88;;;13.20;99.90;;;;;;4997247;28;20145;-80
2023/04/30 09:16:31;;;;;;;10.27;1.92;;;13.20;99.90;;;;;;4994833;28;20046;-81
2023/04/30 09:19:36;;;;;;;10.45;2.33;;;13.30;99.90;;;;;;4993045;28;20052;-81
2023/04/30 09:22:23;;;;;;;9.73;2.23;;;13.50;99.90;;;;;;5011991;28;20046;-81
2023/04/30 09:25:10;;;;;;;7.55;2.33;;;13.50;99.90;;;;;;4980723;28;20062;-80
2023/04/30 09:28:13;;;;;;;9.65;2.63;;;13.50;99.90;;;;;;4993002;28;20089;-79
2023/04/30 09:30:59;;;;;;;6.78;2.10;;;13.60;99.90;;;;;;5011122;28;20112;-81
2023/04/30 09:33:46;;;;;;;7.57;1.83;;;13.80;99.90;;;;;;5010868;28;20120;-82
2023/04/30 09:36:33;;;;;;;7.15;2.25;;;14.00;99.90;;;;;;4967286;28;20111;-81
2023/04/30 09:39:19;;;;;;;9.55;2.13;;;14.10;99.90;;;;;;4993192;28;20053;-80
2023/04/30 09:42:09;;;;;;;8.40;2.13;;;14.30;99.90;;;;;;5010461;28;20325;-80
2023/04/30 09:44:57;;;;;;;7.82;1.80;;;14.30;99.40;;;;;;4993126;28;20133;-81
2023/04/30 09:47:44;;;;;;;9.70;2.10;;;14.40;99.30;;;;;;4993590;28;20049;-81
2023/04/30 09:50:38;;;;;;;11.63;2.00;;;14.50;98.90;;;;;;4992369;28;20068;-81
2023/04/30 09:53:24;;;;;;;6.30;2.20;;;14.70;98.20;;;;;;4992454;28;20054;-81
2023/04/30 09:56:12;;;;;;;9.93;1.80;;;14.70;98.30;;;;;;4995016;28;20049;-82
2023/04/30 09:59:00;;;;;;;7.50;2.33;;;14.90;97.70;;;;;;4992399;28;20077;-81
2023/04/30 10:01:47;;;;;;;5.95;1.80;;;15.00;98.10;;;;;;5010841;28;20081;-82
2023/04/30 10:04:38;;;;;;;5.75;1.83;;;15.20;98.30;;;;;;4992691;28;20146;-81
2023/04/30 10:07:30;;;;;;;8.68;1.83;;;15.30;97.60;;;;;;4980592;28;20140;-82
2023/04/30 10:10:16;;;;;;;5.82;1.83;;;15.50;97.70;;;;;;4992039;28;20461;-82
2023/04/30 10:13:04;;;;;;;8.80;1.80;;;15.60;96.90;;;;;;4994222;28;20056;-81
2023/04/30 10:15:53;;;;;;;5.63;1.50;;;15.80;96.30;;;;;;4980282;28;20050;-79
2023/04/30 10:18:42;;;;;;;9.93;2.10;;;15.80;94.60;;;;;;4992130;28;20058;-82
2023/04/30 10:21:31;;;;;;;7.05;1.77;;;16.00;94.50;;;;;;4996530;28;20038;-82
2023/04/30 10:24:19;;;;;;;6.10;2.08;;;15.90;95.20;;;;;;5010231;28;20050;-82
2023/04/30 10:27:05;;;;;;;9.18;2.10;;;16.40;95.10;;;;;;4991302;28;20060;-79
2023/04/30 10:29:53;;;;;;;8.32;2.53;;;16.50;95.00;;;;;;5008743;28;20060;-82
2023/04/30 10:33:20;;;;;;;6.72;2.30;;;16.70;94.10;;;;;;4992962;28;20058;-81
2023/04/30 10:36:13;;;;;;;12.98;2.40;;;16.80;92.90;;;;;;4965255;28;20064;-81
2023/04/30 10:39:01;;;;;;;7.50;2.15;;;16.80;92.90;;;;;;4991927;28;20060;-81
2023/04/30 10:41:47;;;;;;;7.10;2.42;;;16.70;94.00;;;;;;4993326;28;20065;-81
2023/04/30 10:44:35;;;;;;;11.30;2.55;;;17.00;94.10;;;;;;4992212;28;20050;-81
2023/04/30 10:47:28;;;;;;;9.77;3.28;;;17.20;93.70;;;;;;4992841;28;20060;-83
2023/04/30 10:50:14;;;;;;;6.80;1.80;;;17.40;93.50;;;;;;4991377;28;20511;-81
2023/04/30 10:53:04;;;;;;;8.35;2.35;;;17.60;93.40;;;;;;4992298;28;20614;-81
2023/04/30 10:55:59;;;;;;;7.22;3.58;;;17.70;92.70;;;;;;5009799;28;20042;-81
2023/04/30 10:58:46;;;;;;;13.88;3.50;;;17.50;93.00;;;;;;4992662;28;20054;-81
2023/04/30 11:01:55;;;;;;;8.13;2.95;;;17.80;93.50;;;;;;4991948;28;20060;-81
2023/04/30 11:05:06;;;;;;;7.13;2.80;;;18.30;93.20;;;;;;5009695;28;20050;-81
2023/04/30 11:07:57;;;;;;;9.77;2.85;;;18.00;91.30;;;;;;4993476;28;20054;-81
2023/04/30 11:10:58;;;;;;;11.20;2.60;;;18.20;92.00;;;;;;5011061;28;20050;-83
2023/04/30 11:13:46;;;;;;;7.07;2.20;;;18.40;90.60;;;;;;4990769;28;20100;-83
2023/04/30 11:16:35;;;;;;;9.05;2.58;;;18.50;91.70;;;;;;4992292;28;20042;-81
2023/04/30 11:19:23;;;;;;;9.13;3.45;;;18.70;91.00;;;;;;4978934;28;20057;-81
2023/04/30 11:22:10;;;;;;;10.05;2.90;;;19.40;92.00;;;;;;4991454;28;20058;-82
2023/04/30 11:24:59;;;;;;;7.38;2.67;;;19.80;91.00;;;;;;4992587;28;20057;-82
2023/04/30 11:27:45;;;;;;;6.07;2.65;;;19.70;90.00;;;;;;4979433;28;20053;-82
2023/04/30 11:30:33;;;;;;;6.60;2.65;;;19.30;90.30;;;;;;4992824;28;20156;-82
2023/04/30 11:33:21;;;;;;;9.23;2.30;;;19.50;90.40;;;;;;4992458;28;20057;-82
2023/04/30 11:36:07;;;;;;;7.60;2.28;;;20.00;90.20;;;;;;4991695;28;20049;-81
2023/04/30 11:38:54;;;;;;;8.05;2.15;;;20.20;90.30;;;;;;4979764;28;20476;-82
2023/04/30 11:41:41;;;;;;;8.88;2.60;;;21.00;88.70;;;;;;4978854;28;20089;-82
2023/04/30 11:44:28;;;;;;;8.93;2.50;;;20.80;86.90;;;;;;4991541;28;20059;-82
2023/04/30 11:47:15;;;;;;;7.18;1.83;;;19.60;86.50;;;;;;4992941;28;20800;-83
2023/04/30 11:50:01;;;;;;;7.55;2.47;;;19.80;89.60;;;;;;5009726;28;20094;-82
2023/04/30 11:52:54;;;;;;;7.93;2.25;;;19.90;89.60;;;;;;4991537;28;20494;-82
2023/04/30 11:55:40;;;;;;;11.00;2.17;;;19.70;88.80;;;;;;5009760;28;20058;-82
2023/04/30 11:58:27;;;;;;;13.50;3.15;;;19.50;90.10;;;;;;4992119;28;20050;-83
2023/04/30 12:01:14;;;;;;;8.10;1.75;;;20.30;88.60;;;;;;4993547;28;20786;-82
2023/04/30 12:04:02;;;;;;;7.50;2.00;;;20.80;86.90;;;;;;4991515;28;20061;-83
2023/04/30 12:06:49;;;;;;;6.25;1.80;;;20.60;85.90;;;;;;4995446;28;20046;-82
2023/04/30 12:09:54;;;;;;;5.85;2.53;;;21.10;84.90;;;;;;4982180;28;20605;-81
2023/04/30 12:12:43;;;;;;;9.70;2.20;;;22.10;83.00;;;;;;4995921;28;20069;-84
2023/04/30 12:15:29;;;;;;;11.57;2.45;;;22.60;83.30;;;;;;4981858;28;20041;-82
2023/04/30 12:18:16;;;;;;;7.82;2.25;;;23.30;82.30;;;;;;4995681;28;20050;-81
2023/04/30 12:21:03;;;;;;;6.90;2.42;;;23.80;80.00;;;;;;4994892;28;20067;-83
2023/04/30 12:23:49;;;;;;;6.95;2.88;;;23.40;76.10;;;;;;4995209;28;20050;-83
2023/04/30 12:26:38;;;;;;;9.02;2.30;;;23.70;74.30;;;;;;4994498;28;20510;-82
2023/04/30 12:29:25;;;;;;;6.63;1.65;;;23.90;74.40;;;;;;4995840;28;20153;-84
2023/04/30 12:32:14;;;;;;;8.32;1.65;;;24.30;72.50;;;;;;5012275;28;20085;-82
2023/04/30 12:35:01;;;;;;;8.32;2.10;;;24.70;72.00;;;;;;4998476;28;20070;-83
2023/04/30 12:37:52;;;;;;;9.05;2.33;;;24.90;70.10;;;;;;4995170;28;20054;-83
2023/04/30 12:40:39;;;;;;;6.03;1.60;;;24.20;66.70;;;;;;4981060;28;20050;-82
2023/04/30 12:43:25;;;;;;;8.70;2.00;;;24.10;69.40;;;;;;4995613;28;20140;-83
2023/04/30 12:46:24;;;;;;;6.85;2.08;;;24.00;68.80;;;;;;4981375;28;20498;-84
2023/04/30 12:49:10;;;;;;;5.47;1.60;;;24.50;69.70;;;;;;4994744;28;20566;-83
2023/04/30 12:52:03;;;;;;;6.70;2.03;;;24.90;67.50;;;;;;5012153;28;20049;-83
2023/04/30 12:54:49;;;;;;;7.75;2.45;;;24.70;64.20;;;;;;4995177;28;20050;-82
2023/04/30 12:57:35;;;;;;;7.97;2.13;;;25.20;66.20;;;;;;4995937;28;20045;-82
2023/04/30 13:00:21;;;;;;;8.40;2.20;;;25.60;65.20;;;;;;5012556;28;20042;-83
2023/04/30 13:03:07;;;;;;;5.03;1.60;;;26.40;62.60;;;;;;4994733;28;20405;-82
2023/04/30 13:05:54;;;;;;;6.43;2.00;;;26.50;62.00;;;;;;4996493;28;20053;-82
2023/04/30 13:08:41;;;;;;;6.60;2.08;;;27.00;61.30;;;;;;4994846;28;20108;-82
2023/04/30 13:11:27;;;;;;;5.93;1.73;;;27.00;58.90;;;;;;4994342;28;20054;-82
2023/04/30 13:14:13;;;;;;;6.10;2.33;;;27.40;58.60;;;;;;4994493;28;20056;-83
2023/04/30 13:17:01;;;;;;;9.93;2.17;;;27.30;58.20;;;;;;4993265;28;20060;-83
2023/04/30 13:19:47;;;;;;;5.15;1.75;;;27.70;57.80;;;;;;4994529;28;20498;-82
2023/04/30 13:22:33;;;;;;;13.38;2.60;;;28.00;56.70;;;;;;4993759;28;20050;-83
2023/04/30 13:25:19;;;;;;;5.68;1.70;;;28.30;53.40;;;;;;5011756;28;20131;-82
2023/04/30 13:28:06;;;;;;;7.15;1.67;;;27.90;55.70;;;;;;4993760;28;20053;-83
2023/04/30 13:30:52;;;;;;;6.85;1.98;;;28.40;55.10;;;;;;4994262;28;20560;-81
2023/04/30 13:33:38;;;;;;;6.30;1.83;;;29.00;53.50;;;;;;4995157;28;20173;-81
2023/04/30 13:36:24;;;;;;;8.07;1.33;;;29.40;52.60;;;;;;5011712;28;20050;-81
2023/04/30 13:39:10;;;;;;;3.72;1.60;;;29.70;52.20;;;;;;4993962;28;20501;-81
2023/04/30 13:41:56;;;;;;;5.60;1.33;;;30.00;50.90;;;;;;5011386;28;20050;-81
2023/04/30 13:44:44;;;;;;;5.88;1.50;;;29.80;49.10;;;;;;4993570;28;20053;-81
2023/04/30 13:47:30;;;;;;;5.35;1.45;;;30.60;49.80;;;;;;4993761;28;20096;-82
2023/04/30 13:50:16;;;;;;;4.70;1.67;;;30.50;48.40;;;;;;4993080;28;20061;-81
2023/04/30 13:53:02;;;;;;;4.97;1.63;;;30.50;46.60;;;;;;4994979;28;20449;-81
2023/04/30 13:55:48;;;;;;;4.00;1.50;;;30.60;47.70;;;;;;4993783;28;20490;-81
2023/04/30 13:58:35;;;;;;;3.60;1.33;;;30.80;47.00;;;;;;4992042;28;20060;-82
2023/04/30 14:01:21;;;;;;;4.22;1.50;;;31.10;46.10;;;;;;4994611;28;20054;-82
2023/04/30 14:04:07;;;;;;;5.47;1.60;;;31.50;45.70;;;;;;4993943;28;20188;-83
2023/04/30 14:06:55;;;;;;;6.20;1.50;;;31.10;45.70;;;;;;4979459;28;20485;-82
2023/04/30 14:09:41;;;;;;;5.25;1.38;;;31.60;45.70;;;;;;4993747;28;20079;-82
2023/04/30 14:12:29;;;;;;;4.15;1.50;;;31.80;44.10;;;;;;4993001;28;20149;-82
2023/04/30 14:15:15;;;;;;;3.20;1.25;;;31.50;43.50;;;;;;4993540;28;20537;-81
2023/04/30 14:18:01;;;;;;;6.45;1.70;;;32.10;43.90;;;;;;4993856;28;20096;-83
2023/04/30 14:20:48;;;;;;;3.38;1.10;;;32.50;43.60;;;;;;4993011;28;20128;-82
2023/04/30 14:23:33;;;;;;;4.10;1.70;;;32.30;43.80;;;;;;4991957;28;20054;-84
2023/04/30 14:26:23;;;;;;;4.28;1.45;;;32.80;43.10;;;;;;4993123;28;20093;-82
2023/04/30 14:29:09;;;;;;;6.03;1.45;;;32.70;42.60;;;;;;4978415;28;20058;-82
2023/04/30 14:31:55;;;;;;;3.97;1.33;;;32.70;42.50;;;;;;4993589;28;20076;-82
2023/04/30 14:34:41;;;;;;;10.35;2.72;;;32.60;42.30;;;;;;4993287;28;20076;-81